Strongs, Michigan
Current Conditions -  °F | °C
As of 3:54 AM on Thursday 23 Oct 2014 (Local Time) from KERY Reporting Station
Clear Clear  
Wind Chill: 27°   Ceiling: Unl
Heat Index: 31°   Visibility: 10mi
Dew Point: 31°   Wind: 5mph
Humidity: 99%   Direction: 150°SSE
Pressure: 30.21"   Gusts: NA
Location:  46.36°N, 84.97°W
Report Text: KERY 230754Z AUTO 15004KT 10SM CLR 00/00 A3021 RMK AO2 T10031004
Loading
Personal Weather Stations






























Interactive Weather Map
Tropical Storm Tracking
New forecast layout! Learn more

10-Day Weather Forecast

Advertisements
Track Severe Weather on mobile